createdAt,value
2023-01-06T00:00:53.612Z,98446.97
2023-01-06T00:01:56.378Z,98450.78
2023-01-06T00:02:59.063Z,98449.34
2023-01-06T00:04:03.460Z,98454.63
2023-01-06T00:05:07.041Z,98453.34
2023-01-06T00:06:11.335Z,98448.25
2023-01-06T00:07:17.875Z,98448.97
2023-01-06T00:08:20.905Z,98447.38
2023-01-06T00:09:24.909Z,98455.38
2023-01-06T00:10:27.786Z,98454.06
2023-01-06T00:11:31.482Z,98457.91
2023-01-06T00:12:34.492Z,98459.34
2023-01-06T00:13:37.696Z,98450.78
2023-01-06T00:14:42.825Z,98454.06
2023-01-06T00:15:45.641Z,98460.28
2023-01-06T00:16:48.538Z,98460.63
2023-01-06T00:17:51.579Z,98467.34
2023-01-06T00:18:56.492Z,98467.91
2023-01-06T00:19:59.312Z,98461.31
2023-01-06T00:21:03.442Z,98456.41
2023-01-06T00:22:06.470Z,98455.88
2023-01-06T00:23:09.238Z,98461.34
2023-01-06T00:24:12.127Z,98454.75
2023-01-06T00:25:14.988Z,98458.78
2023-01-06T00:26:18.154Z,98460.41
2023-01-06T00:27:20.987Z,98471.56
2023-01-06T00:28:23.786Z,98470.44
2023-01-06T00:29:26.976Z,98469.16
2023-01-06T00:30:29.701Z,98474.81
2023-01-06T00:31:32.694Z,98465.69
2023-01-06T00:32:35.807Z,98464.09
2023-01-06T00:33:38.989Z,98470.28
2023-01-06T00:34:41.818Z,98469.87
2023-01-06T00:35:44.776Z,98474.09
2023-01-06T00:36:47.492Z,98478.44
2023-01-06T00:37:50.227Z,98471.16
2023-01-06T00:38:53.273Z,98473.56
2023-01-06T00:39:56.141Z,98484.50
2023-01-06T00:40:58.979Z,98480.50
2023-01-06T00:42:04.624Z,98477.34
2023-01-06T00:43:07.463Z,98479.75
2023-01-06T00:44:10.251Z,98483.03
2023-01-06T00:45:13.177Z,98486.47
2023-01-06T00:46:16.034Z,98481.78
2023-01-06T00:47:19.846Z,98482.09
2023-01-06T00:48:22.696Z,98480.81
2023-01-06T00:49:26.268Z,98489.03
2023-01-06T00:50:29.319Z,98491.94
2023-01-06T00:51:33.027Z,98486.13
2023-01-06T00:52:36.210Z,98481.78
2023-01-06T00:53:39.110Z,98479.97
2023-01-06T00:54:43.220Z,98481.97
2023-01-06T00:55:46.225Z,98489.97
2023-01-06T00:56:51.625Z,98497.22
2023-01-06T00:57:54.445Z,98483.56
2023-01-06T00:58:57.348Z,98495.97
2023-01-06T01:00:00.277Z,98494.31
2023-01-06T01:01:07.970Z,98494.88
2023-01-06T01:02:11.152Z,98501.84
2023-01-06T01:03:14.324Z,98499.63
2023-01-06T01:04:17.860Z,98503.47
2023-01-06T01:05:20.796Z,98504.38
2023-01-06T01:06:23.747Z,98500.72
2023-01-06T01:07:26.600Z,98501.06
2023-01-06T01:08:30.908Z,98497.41
2023-01-06T01:09:34.092Z,98503.41
2023-01-06T01:10:37.107Z,98501.44
2023-01-06T01:11:59.032Z,98503.25
2023-01-06T01:13:01.773Z,98508.91
2023-01-06T01:14:04.668Z,98509.47
2023-01-06T01:15:07.990Z,98513.50
2023-01-06T01:16:11.032Z,98510.75
2023-01-06T01:17:20.142Z,98507.63
2023-01-06T01:18:23.188Z,98521.09
2023-01-06T01:19:27.501Z,98510.75
2023-01-06T01:20:30.423Z,98518.97
2023-01-06T01:21:33.520Z,98516.75
2023-01-06T01:22:36.454Z,98519.28
2023-01-06T01:23:39.338Z,98512.75
2023-01-06T01:24:42.103Z,98511.28
2023-01-06T01:25:44.898Z,98511.69
2023-01-06T01:26:47.983Z,98516.97
2023-01-06T01:27:53.725Z,98519.34
2023-01-06T01:28:56.504Z,98518.25
2023-01-06T01:29:59.332Z,98519.69
2023-01-06T01:31:03.693Z,98523.50
2023-01-06T01:32:06.956Z,98523.34
2023-01-06T01:33:09.818Z,98522.63
2023-01-06T01:34:14.783Z,98522.63
2023-01-06T01:35:17.550Z,98518.97
2023-01-06T01:36:20.583Z,98523.53
2023-01-06T01:37:23.542Z,98511.84
2023-01-06T01:38:27.104Z,98516.03
2023-01-06T01:39:30.889Z,98506.59
2023-01-06T01:40:33.741Z,98514.44
2023-01-06T01:41:36.695Z,98515.53
2023-01-06T01:42:39.417Z,98520.09
2023-01-06T01:43:56.118Z,98513.38
2023-01-06T01:45:05.998Z,98524.81
2023-01-06T01:46:08.928Z,98511.56
2023-01-06T01:47:13.871Z,98516.09
2023-01-06T01:48:31.584Z,98518.66
2023-01-06T01:49:37.723Z,98515.00
2023-01-06T01:50:45.926Z,98509.53
2023-01-06T01:51:51.097Z,98527.78
2023-01-06T01:52:59.065Z,98513.94
2023-01-06T01:54:07.324Z,98507.91
2023-01-06T01:55:11.401Z,98523.78
2023-01-06T01:56:21.439Z,98525.59
2023-01-06T01:57:34.417Z,98530.16
2023-01-06T01:58:43.558Z,98528.31
2023-01-06T01:59:47.136Z,98525.97
2023-01-06T02:00:51.733Z,98529.78
2023-01-06T02:01:58.869Z,98535.44
2023-01-06T02:03:03.028Z,98531.97
2023-01-06T02:04:07.746Z,98544.19
2023-01-06T02:05:14.400Z,98544.19
2023-01-06T02:06:21.601Z,98544.34
2023-01-06T02:07:27.162Z,98543.25
2023-01-06T02:08:36.635Z,98545.63
2023-01-06T02:09:58.231Z,98558.75
2023-01-06T02:11:01.687Z,98551.28
2023-01-06T02:12:05.282Z,98558.38
2023-01-06T02:13:11.761Z,98547.63
2023-01-06T02:14:18.066Z,98554.38
2023-01-06T02:15:27.468Z,98550.34
2023-01-06T02:16:47.137Z,98543.81
2023-01-06T02:18:03.416Z,98548.69
2023-01-06T02:19:27.454Z,98549.62
2023-01-06T02:20:48.942Z,98560.56
2023-01-06T02:22:19.267Z,98554.91
2023-01-06T02:23:40.228Z,98568.75
2023-01-06T02:25:07.859Z,98564.56
2023-01-06T02:26:22.896Z,98570.38
2023-01-06T02:27:51.974Z,98560.72
2023-01-06T02:29:32.022Z,98562.38
2023-01-06T02:30:40.593Z,98560.72
2023-01-06T02:32:06.819Z,98563.28
2023-01-06T02:33:46.928Z,98562.19
2023-01-06T02:35:13.352Z,98560.19
2023-01-06T02:36:31.704Z,98564.94
2023-01-06T02:37:48.646Z,98558.72
2023-01-06T02:39:06.243Z,98553.06
2023-01-06T02:40:18.081Z,98554.34
2023-01-06T02:41:32.402Z,98554.69
2023-01-06T02:42:44.761Z,98549.62
2023-01-06T02:44:13.652Z,98549.97
2023-01-06T02:45:28.082Z,98546.34
2023-01-06T02:46:39.740Z,98545.78
2023-01-06T02:48:00.705Z,98538.50
2023-01-06T02:49:29.001Z,98545.63
2023-01-06T02:50:37.300Z,98549.62
2023-01-06T02:52:09.429Z,98536.69
2023-01-06T02:53:21.547Z,98545.44
2023-01-06T02:54:40.480Z,98539.97
2023-01-06T02:55:52.797Z,98541.47
2023-01-06T02:57:24.939Z,98538.53
2023-01-06T02:58:44.780Z,98537.97
2023-01-06T03:00:05.462Z,98549.66
2023-01-06T03:01:14.104Z,98551.09
2023-01-06T03:02:19.499Z,98548.53
2023-01-06T03:03:24.977Z,98559.28
2023-01-06T03:04:36.880Z,98554.72
2023-01-06T03:05:44.052Z,98560.19
2023-01-06T03:06:50.871Z,98553.84
2023-01-06T03:07:55.387Z,98568.56
2023-01-06T03:08:59.577Z,98562.03
2023-01-06T03:10:03.941Z,98575.50
2023-01-06T03:11:06.975Z,98569.31
2023-01-06T03:12:21.225Z,98571.13
2023-01-06T03:13:35.876Z,98572.59
2023-01-06T03:14:45.021Z,98579.69
2023-01-06T03:15:47.930Z,98577.53
2023-01-06T03:16:50.975Z,98594.81
2023-01-06T03:17:54.017Z,98584.78
2023-01-06T03:18:57.726Z,98579.69
2023-01-06T03:20:01.230Z,98580.97
2023-01-06T03:21:12.380Z,98589.88
2023-01-06T03:22:17.493Z,98579.50
2023-01-06T03:23:21.040Z,98588.44
2023-01-06T03:24:24.238Z,98595.50
2023-01-06T03:25:27.233Z,98586.78
2023-01-06T03:26:30.413Z,98589.13
2023-01-06T03:27:33.460Z,98588.06
2023-01-06T03:28:36.305Z,98597.31
2023-01-06T03:29:40.332Z,98591.31
2023-01-06T03:30:50.664Z,98591.47
2023-01-06T03:32:01.031Z,98590.22
2023-01-06T03:33:34.121Z,98592.75
2023-01-06T03:34:53.111Z,98590.22
2023-01-06T03:36:28.375Z,98586.03
2023-01-06T03:37:44.698Z,98580.59
2023-01-06T03:38:58.351Z,98580.94
2023-01-06T03:40:35.861Z,98580.56
2023-01-06T03:42:02.750Z,98578.56
2023-01-06T03:43:20.827Z,98582.22
2023-01-06T03:44:31.383Z,98577.09
2023-01-06T03:45:56.560Z,98579.09
2023-01-06T03:47:15.415Z,98578.19
2023-01-06T03:48:49.548Z,98579.47
2023-01-06T03:50:10.259Z,98579.66
2023-01-06T03:51:46.727Z,98571.62
2023-01-06T03:52:59.326Z,98575.44
2023-01-06T03:54:07.032Z,98578.19
2023-01-06T03:55:16.733Z,98579.66
2023-01-06T03:56:25.812Z,98582.38
2023-01-06T03:57:34.140Z,98585.63
2023-01-06T03:58:39.224Z,98588.72
2023-01-06T04:00:04.362Z,98584.91
2023-01-06T04:01:09.344Z,98584.91
2023-01-06T04:02:13.311Z,98583.06
2023-01-06T04:03:16.908Z,98578.50
2023-01-06T04:04:20.068Z,98589.63
2023-01-06T04:05:28.056Z,98591.09
2023-01-06T04:06:31.081Z,98589.97
2023-01-06T04:07:34.007Z,98597.97
2023-01-06T04:08:36.862Z,98602.88
2023-01-06T04:09:39.654Z,98603.22
2023-01-06T04:10:42.639Z,98610.12
2023-01-06T04:12:04.119Z,98608.13
2023-01-06T04:13:07.340Z,98611.63
2023-01-06T04:14:10.335Z,98615.78
2023-01-06T04:15:19.293Z,98615.03
2023-01-06T04:16:22.589Z,98620.16
2023-01-06T04:17:25.470Z,98620.13
2023-01-06T04:18:28.580Z,98624.09
2023-01-06T04:19:31.586Z,98623.69
2023-01-06T04:20:34.576Z,98619.34
2023-01-06T04:21:37.593Z,98619.34
2023-01-06T04:22:41.195Z,98633.16
2023-01-06T04:23:44.084Z,98615.34
2023-01-06T04:24:46.906Z,98621.34
2023-01-06T04:25:49.661Z,98633.16
2023-01-06T04:26:52.554Z,98624.06
2023-01-06T04:27:55.526Z,98626.59
2023-01-06T04:28:58.393Z,98619.34
2023-01-06T04:30:01.094Z,98616.41
2023-01-06T04:31:04.010Z,98623.69
2023-01-06T04:32:06.701Z,98626.06
2023-01-06T04:33:09.507Z,98625.34
2023-01-06T04:34:12.177Z,98622.41
2023-01-06T04:35:14.974Z,98625.69
2023-01-06T04:36:18.792Z,98621.50
2023-01-06T04:37:21.646Z,98619.50
2023-01-06T04:38:24.372Z,98618.41
2023-01-06T04:39:27.050Z,98624.25
2023-01-06T04:40:29.771Z,98622.97
2023-01-06T04:41:32.516Z,98619.13
2023-01-06T04:42:55.454Z,98624.41
2023-01-06T04:43:58.331Z,98626.78
2023-01-06T04:45:01.179Z,98621.53
2023-01-06T04:46:04.678Z,98626.97
2023-01-06T04:47:07.989Z,98634.59
2023-01-06T04:48:11.982Z,98628.81
2023-01-06T04:49:15.171Z,98624.62
2023-01-06T04:50:18.021Z,98625.03
2023-01-06T04:51:20.823Z,98634.44
2023-01-06T04:52:26.791Z,98630.47
2023-01-06T04:53:29.623Z,98635.19
2023-01-06T04:54:32.363Z,98632.44
2023-01-06T04:55:39.000Z,98636.81
2023-01-06T04:56:42.058Z,98630.28
2023-01-06T04:57:45.119Z,98633.00
2023-01-06T04:58:48.061Z,98633.56
2023-01-06T04:59:50.888Z,98633.56
2023-01-06T05:01:00.276Z,98638.88
2023-01-06T05:02:03.167Z,98637.97
2023-01-06T05:03:05.970Z,98639.03
2023-01-06T05:04:08.941Z,98646.69
2023-01-06T05:05:12.569Z,98653.22
2023-01-06T05:06:16.274Z,98657.56
2023-01-06T05:07:19.217Z,98644.13
2023-01-06T05:08:22.235Z,98655.03
2023-01-06T05:09:25.183Z,98652.81
2023-01-06T05:10:27.899Z,98660.28
2023-01-06T05:11:30.689Z,98656.81
2023-01-06T05:12:34.196Z,98660.09
2023-01-06T05:13:37.108Z,98671.75
2023-01-06T05:14:39.918Z,98672.84
2023-01-06T05:15:42.748Z,98677.59
2023-01-06T05:16:45.804Z,98677.59
2023-01-06T05:17:48.736Z,98679.94
2023-01-06T05:18:52.227Z,98681.56
2023-01-06T05:19:55.036Z,98676.84
2023-01-06T05:20:57.685Z,98680.31
2023-01-06T05:22:00.538Z,98686.12
2023-01-06T05:23:04.003Z,98680.88
2023-01-06T05:24:07.016Z,98683.06
2023-01-06T05:25:09.881Z,98684.88
2023-01-06T05:26:19.103Z,98683.94
2023-01-06T05:27:21.788Z,98684.28
2023-01-06T05:28:24.827Z,98698.88
2023-01-06T05:29:27.615Z,98689.41
2023-01-06T05:30:30.658Z,98696.72
2023-01-06T05:31:33.663Z,98691.06
2023-01-06T05:32:36.463Z,98702.75
2023-01-06T05:33:39.455Z,98698.94
2023-01-06T05:34:42.390Z,98698.56
2023-01-06T05:35:45.462Z,98705.63
2023-01-06T05:36:48.546Z,98697.97
2023-01-06T05:37:54.809Z,98699.09
2023-01-06T05:38:57.866Z,98693.28
2023-01-06T05:40:00.603Z,98689.91
2023-01-06T05:41:03.726Z,98684.63
2023-01-06T05:42:06.684Z,98690.81
2023-01-06T05:43:09.530Z,98689.00
2023-01-06T05:44:12.497Z,98685.31
2023-01-06T05:45:15.342Z,98693.19
2023-01-06T05:46:18.595Z,98691.75
2023-01-06T05:47:21.625Z,98692.66
2023-01-06T05:48:26.576Z,98694.47
2023-01-06T05:49:29.412Z,98698.31
2023-01-06T05:50:32.172Z,98697.75
2023-01-06T05:51:35.138Z,98696.84
2023-01-06T05:52:37.980Z,98696.66
2023-01-06T05:53:42.560Z,98695.75
2023-01-06T05:54:45.375Z,98707.94
2023-01-06T05:55:48.159Z,98714.63
2023-01-06T05:56:51.057Z,98712.63
2023-01-06T05:57:53.964Z,98716.06
2023-01-06T05:58:56.802Z,98723.53
2023-01-06T05:59:59.635Z,98724.25
2023-01-06T06:01:04.261Z,98722.06
2023-01-06T06:02:07.416Z,98728.59
2023-01-06T06:03:10.155Z,98726.84
2023-01-06T06:04:13.734Z,98725.72
2023-01-06T06:05:16.828Z,98726.41
2023-01-06T06:06:21.429Z,98727.16
2023-01-06T06:07:24.632Z,98729.16
2023-01-06T06:08:29.203Z,98730.22
2023-01-06T06:09:32.082Z,98726.22
2023-01-06T06:10:34.843Z,98729.31
2023-01-06T06:11:37.508Z,98733.31
2023-01-06T06:12:40.356Z,98731.88
2023-01-06T06:13:49.757Z,98737.66
2023-01-06T06:14:52.659Z,98738.41
2023-01-06T06:16:05.966Z,98741.50
2023-01-06T06:17:09.257Z,98737.34
2023-01-06T06:18:12.134Z,98734.78
2023-01-06T06:19:15.303Z,98740.06
2023-01-06T06:20:18.234Z,98749.84
2023-01-06T06:21:23.731Z,98737.31
2023-01-06T06:22:26.378Z,98738.56
2023-01-06T06:23:30.118Z,98736.03
2023-01-06T06:24:32.872Z,98735.47
2023-01-06T06:25:35.753Z,98739.66
2023-01-06T06:26:38.492Z,98736.28
2023-01-06T06:27:41.201Z,98728.97
2023-01-06T06:28:43.984Z,98737.34
2023-01-06T06:29:47.304Z,98735.91
2023-01-06T06:30:50.254Z,98733.88
2023-01-06T06:31:53.073Z,98730.75
2023-01-06T06:32:55.873Z,98726.03
2023-01-06T06:34:02.420Z,98735.47
2023-01-06T06:35:05.450Z,98735.69
2023-01-06T06:36:16.177Z,98734.41
2023-01-06T06:37:18.938Z,98740.94
2023-01-06T06:38:21.718Z,98746.94
2023-01-06T06:39:24.454Z,98746.22
2023-01-06T06:40:30.936Z,98748.72
2023-01-06T06:41:33.938Z,98745.50
2023-01-06T06:42:36.779Z,98749.81
2023-01-06T06:43:40.056Z,98747.50
2023-01-06T06:44:42.884Z,98758.78
2023-01-06T06:45:46.728Z,98749.13
2023-01-06T06:46:53.011Z,98749.66
2023-01-06T06:47:55.765Z,98749.28
2023-01-06T06:49:01.897Z,98752.56
2023-01-06T06:50:05.432Z,98751.59
2023-01-06T06:51:15.000Z,98740.38
2023-01-06T06:52:17.795Z,98752.56
2023-01-06T06:53:20.602Z,98753.28
2023-01-06T06:54:23.319Z,98754.59
2023-01-06T06:55:26.049Z,98758.19
2023-01-06T06:56:28.927Z,98758.91
2023-01-06T06:57:31.660Z,98762.00
2023-01-06T06:58:36.114Z,98761.28
2023-01-06T06:59:38.856Z,98759.63
2023-01-06T07:00:41.529Z,98761.78
2023-01-06T07:01:44.683Z,98769.78
2023-01-06T07:02:51.078Z,98769.62
2023-01-06T07:03:53.769Z,98777.78
2023-01-06T07:04:56.510Z,98774.13
2023-01-06T07:05:59.889Z,98781.09
2023-01-06T07:07:02.607Z,98776.72
2023-01-06T07:08:05.741Z,98775.78
2023-01-06T07:09:08.534Z,98783.25
2023-01-06T07:10:15.709Z,98786.31
2023-01-06T07:11:19.003Z,98787.03
2023-01-06T07:12:21.700Z,98787.75
2023-01-06T07:13:24.513Z,98785.97
2023-01-06T07:14:27.560Z,98789.22
2023-01-06T07:15:30.402Z,98789.37
2023-01-06T07:16:33.518Z,98788.44
2023-01-06T07:17:36.381Z,98791.72
2023-01-06T07:18:39.614Z,98795.69
2023-01-06T07:19:42.311Z,98793.50
2023-01-06T07:20:53.864Z,98798.97
2023-01-06T07:21:57.134Z,98799.69
2023-01-06T07:23:00.079Z,98795.50
2023-01-06T07:24:02.931Z,98805.16
2023-01-06T07:25:09.635Z,98798.97
2023-01-06T07:26:12.334Z,98807.53
2023-01-06T07:27:15.244Z,98805.34
2023-01-06T07:28:18.277Z,98803.34
2023-01-06T07:29:21.012Z,98806.59
2023-01-06T07:30:24.932Z,98807.41
2023-01-06T07:31:28.067Z,98807.72
2023-01-06T07:32:31.027Z,98801.38
2023-01-06T07:33:33.814Z,98807.00
2023-01-06T07:34:36.538Z,98808.69
2023-01-06T07:35:39.548Z,98805.06
2023-01-06T07:36:42.271Z,98803.81
2023-01-06T07:37:45.712Z,98805.59
2023-01-06T07:38:48.589Z,98804.87
2023-01-06T07:39:52.381Z,98804.87
2023-01-06T07:41:00.536Z,98803.91
2023-01-06T07:42:03.635Z,98805.69
2023-01-06T07:43:11.483Z,98804.25
2023-01-06T07:44:17.871Z,98800.78
2023-01-06T07:45:21.138Z,98807.50
2023-01-06T07:46:23.913Z,98809.69
2023-01-06T07:47:26.900Z,98801.69
2023-01-06T07:48:29.721Z,98806.81
2023-01-06T07:49:32.740Z,98806.13
2023-01-06T07:50:35.689Z,98791.22
2023-01-06T07:51:38.659Z,98797.22
2023-01-06T07:52:41.496Z,98799.03
2023-01-06T07:53:44.424Z,98805.94
2023-01-06T07:54:47.204Z,98797.94
2023-01-06T07:55:54.338Z,98795.44
2023-01-06T07:56:57.191Z,98796.50
2023-01-06T07:58:04.670Z,98795.03
2023-01-06T07:59:07.584Z,98804.13
2023-01-06T08:00:11.351Z,98794.69
2023-01-06T08:01:14.539Z,98801.25
2023-01-06T08:02:17.375Z,98800.75
2023-01-06T08:03:20.588Z,98806.56
2023-01-06T08:04:23.423Z,98804.37
2023-01-06T08:05:26.429Z,98811.28
2023-01-06T08:06:29.436Z,98815.47
2023-01-06T08:07:32.302Z,98805.66
2023-01-06T08:08:39.794Z,98806.56
2023-01-06T08:09:42.584Z,98811.34
2023-01-06T08:10:45.275Z,98813.94
2023-01-06T08:11:48.057Z,98805.75
2023-01-06T08:12:50.808Z,98811.72
2023-01-06T08:13:53.643Z,98810.66
2023-01-06T08:14:56.404Z,98811.06
2023-01-06T08:15:59.185Z,98806.88
2023-01-06T08:17:01.982Z,98806.19
2023-01-06T08:18:04.969Z,98800.19
2023-01-06T08:19:08.071Z,98797.09
2023-01-06T08:20:10.976Z,98798.94
2023-01-06T08:21:13.725Z,98789.50
2023-01-06T08:22:16.381Z,98790.44
2023-01-06T08:23:19.065Z,98783.50
2023-01-06T08:24:21.751Z,98787.88
2023-01-06T08:25:24.424Z,98793.00
2023-01-06T08:26:27.378Z,98776.97
2023-01-06T08:27:30.286Z,98783.91
2023-01-06T08:28:33.351Z,98781.72
2023-01-06T08:29:37.129Z,98779.16
2023-01-06T08:30:41.911Z,98777.00
2023-01-06T08:31:44.976Z,98768.97
2023-01-06T08:32:50.692Z,98763.16
2023-01-06T08:33:53.807Z,98773.53
2023-01-06T08:35:00.117Z,98760.25
2023-01-06T08:36:07.151Z,98767.91
2023-01-06T08:37:10.094Z,98767.91
2023-01-06T08:38:12.868Z,98760.44
2023-01-06T08:39:16.677Z,98770.28
2023-01-06T08:40:19.724Z,98756.44
2023-01-06T08:41:22.937Z,98760.44
2023-01-06T08:42:25.713Z,98763.53
2023-01-06T08:43:32.955Z,98755.16
2023-01-06T08:44:35.975Z,98769.00
2023-01-06T08:45:40.073Z,98751.87
2023-01-06T08:46:43.087Z,98759.00
2023-01-06T08:47:45.946Z,98759.00
2023-01-06T08:48:49.316Z,98760.47
2023-01-06T08:49:52.061Z,98762.47
2023-01-06T08:50:55.160Z,98758.63
2023-01-06T08:51:57.958Z,98757.91
2023-01-06T08:53:01.620Z,98762.28
2023-01-06T08:54:04.362Z,98765.38
2023-01-06T08:55:07.259Z,98770.84
2023-01-06T08:56:19.620Z,98769.41
2023-01-06T08:57:22.657Z,98772.84
2023-01-06T08:58:25.833Z,98780.16
2023-01-06T08:59:29.105Z,98780.50
2023-01-06T09:00:32.018Z,98785.97
2023-01-06T09:01:36.644Z,98790.16
2023-01-06T09:02:39.344Z,98784.31
2023-01-06T09:03:42.138Z,98788.34
2023-01-06T09:04:44.877Z,98786.34
2023-01-06T09:05:56.569Z,98791.63
2023-01-06T09:06:59.519Z,98794.72
2023-01-06T09:08:02.444Z,98797.78
2023-01-06T09:09:06.817Z,98800.91
2023-01-06T09:10:10.045Z,98800.19
2023-01-06T09:11:13.121Z,98803.63
2023-01-06T09:12:16.083Z,98804.37
2023-01-06T09:13:19.024Z,98808.94
2023-01-06T09:14:21.986Z,98803.25
2023-01-06T09:15:24.826Z,98810.72
2023-01-06T09:16:27.913Z,98809.09
2023-01-06T09:17:31.057Z,98811.84
2023-01-06T09:18:33.935Z,98810.00
2023-01-06T09:19:36.806Z,98816.75
2023-01-06T09:20:39.733Z,98822.94
2023-01-06T09:21:43.171Z,98812.75
2023-01-06T09:22:46.305Z,98817.31
2023-01-06T09:23:49.701Z,98817.13
2023-01-06T09:24:52.429Z,98816.75
2023-01-06T09:25:57.871Z,98821.16
2023-01-06T09:27:00.789Z,98820.59
2023-01-06T09:28:03.751Z,98824.63
2023-01-06T09:29:06.495Z,98818.59
2023-01-06T09:30:09.818Z,98828.41
2023-01-06T09:31:12.646Z,98825.91
2023-01-06T09:32:15.713Z,98822.78
2023-01-06T09:33:18.916Z,98824.63
2023-01-06T09:34:21.817Z,98822.59
2023-01-06T09:35:24.851Z,98819.16
2023-01-06T09:36:28.371Z,98824.44
2023-01-06T09:37:31.445Z,98822.44
2023-01-06T09:38:34.276Z,98825.53
2023-01-06T09:39:37.514Z,98828.84
2023-01-06T09:41:08.141Z,98823.72
2023-01-06T09:42:40.175Z,98823.91
2023-01-06T09:43:42.800Z,98823.38
2023-01-06T09:45:16.829Z,98825.94
2023-01-06T09:46:26.638Z,98823.91
2023-01-06T09:47:45.284Z,98821.00
2023-01-06T09:49:01.917Z,98818.06
2023-01-06T09:50:22.581Z,98817.16
2023-01-06T09:51:29.058Z,98815.72
2023-01-06T09:52:46.736Z,98818.28
2023-01-06T09:54:10.269Z,98816.25
2023-01-06T09:55:37.374Z,98808.22
2023-01-06T09:56:44.396Z,98810.41
2023-01-06T09:58:00.920Z,98808.75
2023-01-06T09:59:19.055Z,98810.97
2023-01-06T10:00:43.345Z,98811.50
2023-01-06T10:01:49.374Z,98809.88
2023-01-06T10:02:53.019Z,98818.63
2023-01-06T10:03:57.860Z,98814.59
2023-01-06T10:05:01.198Z,98815.69
2023-01-06T10:06:19.142Z,98810.78
2023-01-06T10:07:41.658Z,98816.06
2023-01-06T10:08:50.413Z,98812.94
2023-01-06T10:10:05.385Z,98815.69
2023-01-06T10:11:40.111Z,98809.50
2023-01-06T10:13:15.826Z,98804.91
2023-01-06T10:14:41.787Z,98806.75
2023-01-06T10:15:54.665Z,98805.47
2023-01-06T10:17:21.437Z,98799.44
2023-01-06T10:18:29.773Z,98808.03
2023-01-06T10:19:53.353Z,98805.13
2023-01-06T10:21:28.194Z,98800.38
2023-01-06T10:22:52.557Z,98802.00
2023-01-06T10:23:58.385Z,98799.84
2023-01-06T10:25:12.826Z,98801.47
2023-01-06T10:26:33.110Z,98801.84
2023-01-06T10:27:39.632Z,98797.66
2023-01-06T10:28:43.295Z,98794.56
2023-01-06T10:29:49.156Z,98806.59
2023-01-06T10:30:55.636Z,98811.31
2023-01-06T10:32:01.871Z,98796.91
2023-01-06T10:33:05.737Z,98799.84
2023-01-06T10:34:18.037Z,98797.66
2023-01-06T10:35:25.122Z,98796.22
2023-01-06T10:36:41.414Z,98789.09
2023-01-06T10:37:49.471Z,98788.00
2023-01-06T10:38:53.671Z,98793.66
2023-01-06T10:40:03.430Z,98790.19
2023-01-06T10:41:33.889Z,98789.81
2023-01-06T10:42:56.336Z,98788.19
2023-01-06T10:43:59.194Z,98786.91
2023-01-06T10:45:02.124Z,98785.62
2023-01-06T10:46:05.630Z,98792.00
2023-01-06T10:47:18.371Z,98783.25
2023-01-06T10:48:27.510Z,98788.34
2023-01-06T10:49:30.926Z,98779.63
2023-01-06T10:50:35.065Z,98789.44
2023-01-06T10:51:45.755Z,98784.53
2023-01-06T10:52:49.585Z,98792.19
2023-01-06T10:53:52.706Z,98793.28
2023-01-06T10:55:00.556Z,98791.47
2023-01-06T10:56:04.484Z,98796.94
2023-01-06T10:57:16.178Z,98790.75
2023-01-06T10:58:30.254Z,98793.84
2023-01-06T10:59:33.016Z,98794.19
2023-01-06T11:00:36.001Z,98792.03
2023-01-06T11:01:53.476Z,98796.22
2023-01-06T11:03:19.636Z,98799.50
2023-01-06T11:04:28.317Z,98790.91
2023-01-06T11:05:33.696Z,98786.72
2023-01-06T11:06:39.021Z,98791.47
2023-01-06T11:08:03.200Z,98787.28
2023-01-06T11:09:26.345Z,98791.47
2023-01-06T11:10:38.924Z,98783.63
2023-01-06T11:11:49.484Z,98782.16
2023-01-06T11:12:52.568Z,98783.63
2023-01-06T11:14:03.756Z,98780.53
2023-01-06T11:15:08.294Z,98781.06
2023-01-06T11:16:37.391Z,98780.87
2023-01-06T11:17:40.242Z,98784.16
2023-01-06T11:18:43.248Z,98784.72
2023-01-06T11:19:47.989Z,98777.06
2023-01-06T11:21:07.301Z,98783.63
2023-01-06T11:22:33.794Z,98780.34
2023-01-06T11:23:39.922Z,98796.37
2023-01-06T11:24:54.562Z,98784.69
2023-01-06T11:26:16.607Z,98794.19
2023-01-06T11:27:19.610Z,98792.72
2023-01-06T11:28:22.284Z,98796.41
2023-01-06T11:29:35.851Z,98792.72
2023-01-06T11:30:48.651Z,98794.91
2023-01-06T11:31:51.834Z,98792.19
2023-01-06T11:32:56.049Z,98794.34
2023-01-06T11:34:04.246Z,98788.16
2023-01-06T11:35:09.112Z,98796.91
2023-01-06T11:36:14.540Z,98789.59
2023-01-06T11:37:31.084Z,98784.50
2023-01-06T11:38:43.032Z,98787.78
2023-01-06T11:39:49.116Z,98781.06
2023-01-06T11:40:54.996Z,98786.88
2023-01-06T11:42:05.324Z,98781.03
2023-01-06T11:43:19.002Z,98782.53
2023-01-06T11:44:36.657Z,98778.50
2023-01-06T11:45:55.026Z,98779.97
2023-01-06T11:47:08.845Z,98776.47
2023-01-06T11:48:26.402Z,98780.66
2023-01-06T11:49:35.131Z,98778.12
2023-01-06T11:50:39.479Z,98783.59
2023-01-06T11:51:42.242Z,98777.41
2023-01-06T11:53:06.460Z,98776.47
2023-01-06T11:54:32.308Z,98775.19
2023-01-06T11:55:35.025Z,98774.28
2023-01-06T11:56:37.882Z,98778.12
2023-01-06T11:57:54.601Z,98781.03
2023-01-06T11:59:08.423Z,98777.91
2023-01-06T12:00:43.132Z,98781.59
2023-01-06T12:01:55.395Z,98774.81
2023-01-06T12:03:17.033Z,98769.19
2023-01-06T12:04:39.411Z,98766.06
2023-01-06T12:06:13.193Z,98760.78
2023-01-06T12:07:32.271Z,98763.88
2023-01-06T12:08:37.679Z,98757.31
2023-01-06T12:09:45.761Z,98753.47
2023-01-06T12:11:05.684Z,98741.25
2023-01-06T12:12:13.242Z,98741.22
2023-01-06T12:13:16.209Z,98736.47
2023-01-06T12:14:29.456Z,98741.56
2023-01-06T12:15:35.680Z,98732.78
2023-01-06T12:16:46.982Z,98742.47
2023-01-06T12:17:52.017Z,98733.72
2023-01-06T12:18:55.204Z,98730.22
2023-01-06T12:20:18.893Z,98729.69
2023-01-06T12:21:29.709Z,98731.34
2023-01-06T12:22:41.217Z,98728.97
2023-01-06T12:23:46.307Z,98728.97
2023-01-06T12:24:52.769Z,98729.63
2023-01-06T12:26:00.758Z,98732.38
2023-01-06T12:27:06.638Z,98726.00
2023-01-06T12:28:30.050Z,98726.91
2023-01-06T12:29:33.907Z,98732.00
2023-01-06T12:30:53.810Z,98722.66
2023-01-06T12:32:06.081Z,98726.66
2023-01-06T12:33:20.939Z,98721.56
2023-01-06T12:34:27.489Z,98719.72
2023-01-06T12:35:34.430Z,98725.41
2023-01-06T12:37:11.179Z,98721.94
2023-01-06T12:38:31.180Z,98720.66
2023-01-06T12:39:46.040Z,98717.19
2023-01-06T12:41:05.653Z,98719.38
2023-01-06T12:42:26.432Z,98716.81
2023-01-06T12:43:33.991Z,98722.47
2023-01-06T12:44:46.552Z,98714.94
2023-01-06T12:46:07.177Z,98706.72
2023-01-06T12:47:16.989Z,98704.19
2023-01-06T12:48:50.896Z,98711.34
2023-01-06T12:50:15.410Z,98711.91
2023-01-06T12:51:41.547Z,98697.25
2023-01-06T12:52:49.755Z,98700.69
2023-01-06T12:53:59.592Z,98699.00
2023-01-06T12:55:03.143Z,98698.78
2023-01-06T12:56:32.068Z,98696.13
2023-01-06T12:58:07.113Z,98693.97
2023-01-06T12:59:19.557Z,98691.22
2023-01-06T13:00:32.489Z,98693.91
2023-01-06T13:01:51.242Z,98693.59
2023-01-06T13:03:18.346Z,98690.63
2023-01-06T13:04:57.429Z,98693.38
2023-01-06T13:06:06.583Z,98697.56
2023-01-06T13:07:32.250Z,98695.19
2023-01-06T13:09:11.179Z,98698.09
2023-01-06T13:10:34.115Z,98693.53
2023-01-06T13:11:51.752Z,98695.75
2023-01-06T13:13:10.084Z,98699.06
2023-01-06T13:14:34.007Z,98695.75
2023-01-06T13:15:40.926Z,98694.31
2023-01-06T13:17:01.807Z,98695.41